createdAt,value
2018-04-08T00:01:04.481Z,10.20
2018-04-08T00:03:32.112Z,10.20
2018-04-08T00:06:00.505Z,9.90
2018-04-08T00:08:28.884Z,9.90
2018-04-08T00:10:56.492Z,9.90
2018-04-08T00:13:24.107Z,9.90
2018-04-08T00:15:52.482Z,9.80
2018-04-08T00:18:20.068Z,9.80
2018-04-08T00:20:47.699Z,9.90
2018-04-08T00:23:16.100Z,10.00
2018-04-08T00:25:43.675Z,10.00
2018-04-08T00:28:12.235Z,9.90
2018-04-08T00:30:39.794Z,9.90
2018-04-08T00:33:07.391Z,9.80
2018-04-08T00:35:35.852Z,9.60
2018-04-08T00:38:03.427Z,9.60
2018-04-08T00:40:31.067Z,9.60
2018-04-08T00:42:58.678Z,9.70
2018-04-08T00:45:26.309Z,9.60
2018-04-08T00:47:53.916Z,9.50
2018-04-08T00:50:22.291Z,9.40
2018-04-08T00:52:50.671Z,9.40
2018-04-08T00:55:19.064Z,9.30
2018-04-08T00:57:46.710Z,9.30
2018-04-08T01:00:14.286Z,9.20
2018-04-08T01:02:41.898Z,9.10
2018-04-08T01:05:09.557Z,8.90
2018-04-08T01:07:37.136Z,8.80
2018-04-08T01:10:05.687Z,8.70
2018-04-08T01:12:33.249Z,8.60
2018-04-08T01:15:00.916Z,8.50
2018-04-08T01:17:28.473Z,8.40
2018-04-08T01:19:56.096Z,8.30
2018-04-08T01:22:23.712Z,8.20
2018-04-08T01:24:51.255Z,8.20
2018-04-08T01:27:18.830Z,8.20
2018-04-08T01:29:46.470Z,8.20
2018-04-08T01:32:14.063Z,8.20
2018-04-08T01:34:41.640Z,8.20
2018-04-08T01:37:09.970Z,8.40
2018-04-08T01:39:37.573Z,8.30
2018-04-08T01:42:05.952Z,8.40
2018-04-08T01:44:34.333Z,8.30
2018-04-08T01:47:02.690Z,8.10
2018-04-08T01:49:30.247Z,8.10
2018-04-08T01:51:57.871Z,8.00
2018-04-08T01:54:25.452Z,7.90
2018-04-08T01:56:53.108Z,7.80
2018-04-08T01:59:20.735Z,7.70
2018-04-08T02:01:48.331Z,7.80
2018-04-08T02:04:16.030Z,7.70
2018-04-08T02:06:44.440Z,7.60
2018-04-08T02:09:31.274Z,7.60
2018-04-08T02:11:58.831Z,7.60
2018-04-08T02:14:26.434Z,7.50
2018-04-08T02:16:54.082Z,7.40
2018-04-08T02:19:21.653Z,7.20
2018-04-08T02:21:49.272Z,7.30
2018-04-08T02:24:16.927Z,7.20
2018-04-08T02:26:44.537Z,7.10
2018-04-08T02:29:12.143Z,7.00
2018-04-08T02:31:39.747Z,7.00
2018-04-08T02:34:07.379Z,7.00
2018-04-08T02:36:35.245Z,6.90
2018-04-08T02:39:03.589Z,6.90
2018-04-08T02:41:31.181Z,6.90
2018-04-08T02:43:58.822Z,6.90
2018-04-08T02:46:26.473Z,6.90
2018-04-08T02:48:54.109Z,6.90
2018-04-08T02:51:21.757Z,7.00
2018-04-08T02:53:50.564Z,7.10
2018-04-08T02:56:18.172Z,7.10
2018-04-08T02:58:45.755Z,7.10
2018-04-08T03:01:13.325Z,7.30
2018-04-08T03:03:40.897Z,7.40
2018-04-08T03:06:08.518Z,7.30
2018-04-08T03:08:36.137Z,7.20
2018-04-08T03:11:04.499Z,7.20
2018-04-08T03:13:32.843Z,7.20
2018-04-08T03:16:00.459Z,7.20
2018-04-08T03:18:28.056Z,7.30
2018-04-08T03:20:55.654Z,7.30
2018-04-08T03:23:23.240Z,7.30
2018-04-08T03:25:50.840Z,7.20
2018-04-08T03:28:18.415Z,7.20
2018-04-08T03:30:46.060Z,7.20
2018-04-08T03:33:13.677Z,7.10
2018-04-08T03:35:41.287Z,7.00
2018-04-08T03:38:08.914Z,7.00
2018-04-08T03:40:36.490Z,6.90
2018-04-08T03:43:04.123Z,6.90
2018-04-08T03:45:31.714Z,7.00
2018-04-08T03:47:59.361Z,7.00
2018-04-08T03:50:26.997Z,7.00
2018-04-08T03:52:55.388Z,7.00
2018-04-08T03:55:23.031Z,7.00
2018-04-08T03:57:51.539Z,6.70
2018-04-08T04:00:19.167Z,6.70
2018-04-08T04:02:47.505Z,6.50
2018-04-08T04:05:15.130Z,6.50
2018-04-08T04:07:43.852Z,6.30
2018-04-08T04:10:11.455Z,6.20
2018-04-08T04:12:39.795Z,6.00
2018-04-08T04:15:07.409Z,6.00
2018-04-08T04:17:35.564Z,6.00
2018-04-08T04:20:15.905Z,6.10
2018-04-08T04:22:55.253Z,6.10
2018-04-08T04:28:31.103Z,6.20
2018-04-08T04:30:58.667Z,6.20
2018-04-08T04:33:26.263Z,6.30
2018-04-08T04:35:53.886Z,6.20
2018-04-08T04:38:21.462Z,6.10
2018-04-08T04:40:49.077Z,6.10
2018-04-08T04:43:16.697Z,6.00
2018-04-08T04:45:45.065Z,6.00
2018-04-08T04:48:13.450Z,6.00
2018-04-08T04:50:41.790Z,5.90
2018-04-08T04:53:09.382Z,5.90
2018-04-08T04:55:36.994Z,6.00
2018-04-08T04:58:04.655Z,5.90
2018-04-08T05:00:34.005Z,5.90
2018-04-08T05:03:02.395Z,5.90
2018-04-08T05:05:31.781Z,6.00
2018-04-08T05:08:00.166Z,6.10
2018-04-08T05:10:28.575Z,6.10
2018-04-08T05:12:56.193Z,6.10
2018-04-08T05:15:23.761Z,6.20
2018-04-08T05:17:52.105Z,6.30
2018-04-08T05:20:20.614Z,6.30
2018-04-08T05:22:48.192Z,6.30
2018-04-08T05:25:17.802Z,6.40
2018-04-08T05:33:33.846Z,6.60
2018-04-08T05:36:08.014Z,6.70
2018-04-08T05:38:35.616Z,6.70
2018-04-08T05:41:03.280Z,6.80
2018-04-08T05:43:38.167Z,6.90
2018-04-08T05:49:18.100Z,7.50
2018-04-08T05:51:45.651Z,7.80
2018-04-08T05:54:19.267Z,8.30
2018-04-08T06:02:44.751Z,9.90
2018-04-08T06:05:22.946Z,10.50
2018-04-08T06:13:36.451Z,10.60
2018-04-08T06:16:05.828Z,11.20
2018-04-08T06:18:33.458Z,11.20
2018-04-08T06:21:18.354Z,11.10
2018-04-08T06:23:53.470Z,10.80
2018-04-08T06:26:21.080Z,11.10
2018-04-08T06:28:49.412Z,11.10
2018-04-08T06:31:17.030Z,11.10
2018-04-08T06:33:44.971Z,11.00
2018-04-08T06:36:12.588Z,11.00
2018-04-08T06:38:40.233Z,11.20
2018-04-08T06:41:09.808Z,11.50
2018-04-08T06:43:38.217Z,12.00
2018-04-08T06:46:05.840Z,12.00
2018-04-08T06:48:38.919Z,12.30
2018-04-08T06:51:06.527Z,12.50
2018-04-08T06:53:34.143Z,12.60
2018-04-08T06:56:01.705Z,13.00
2018-04-08T06:58:29.312Z,13.70
2018-04-08T07:00:58.908Z,13.60
2018-04-08T07:03:26.540Z,14.10
2018-04-08T07:05:54.132Z,14.30
2018-04-08T07:08:22.985Z,14.70
2018-04-08T07:10:55.812Z,15.20
2018-04-08T07:13:26.520Z,15.80
2018-04-08T07:18:56.516Z,16.30
2018-04-08T07:24:33.603Z,16.60
2018-04-08T07:27:01.244Z,17.50
2018-04-08T07:29:28.836Z,18.00
2018-04-08T07:31:56.453Z,19.00
2018-04-08T07:34:24.038Z,19.50
2018-04-08T07:36:51.650Z,19.40
2018-04-08T07:39:19.248Z,20.10
2018-04-08T07:41:46.906Z,20.90
2018-04-08T07:44:14.485Z,21.00
2018-04-08T07:46:42.130Z,21.60
2018-04-08T07:49:09.687Z,22.50
2018-04-08T07:51:37.256Z,23.60
2018-04-08T07:54:04.921Z,24.30
2018-04-08T07:56:32.581Z,25.10
2018-04-08T07:59:00.132Z,26.00
2018-04-08T08:01:27.755Z,26.70
2018-04-08T08:03:55.400Z,27.40
2018-04-08T08:06:22.994Z,27.60
2018-04-08T08:08:51.372Z,28.40
2018-04-08T08:11:19.790Z,28.30
2018-04-08T08:13:47.975Z,28.30
2018-04-08T08:16:15.597Z,28.30
2018-04-08T08:18:43.299Z,28.60
2018-04-08T08:21:10.961Z,29.00
2018-04-08T08:23:39.027Z,29.70
2018-04-08T08:26:06.693Z,30.00
2018-04-08T08:28:34.352Z,30.20
2018-04-08T08:31:02.003Z,30.70
2018-04-08T08:33:29.665Z,30.20
2018-04-08T08:35:57.267Z,30.20
2018-04-08T08:38:25.241Z,30.60
2018-04-08T08:40:52.820Z,31.20
2018-04-08T08:43:22.052Z,31.50
2018-04-08T08:45:49.864Z,31.50
2018-04-08T08:48:17.486Z,32.10
2018-04-08T08:50:45.075Z,32.30
2018-04-08T08:53:12.733Z,32.20
2018-04-08T08:55:40.348Z,31.60
2018-04-08T08:58:08.009Z,31.40
2018-04-08T09:00:36.516Z,31.30
2018-04-08T09:03:05.111Z,31.50
2018-04-08T09:05:53.617Z,31.90
2018-04-08T09:08:21.293Z,31.10
2018-04-08T09:10:49.624Z,30.80
2018-04-08T09:13:30.340Z,31.40
2018-04-08T09:15:57.957Z,31.80
2018-04-08T09:18:25.680Z,32.00
2018-04-08T09:20:59.267Z,32.70
2018-04-08T09:26:35.431Z,33.70
2018-04-08T09:29:02.994Z,33.60
2018-04-08T09:31:30.522Z,34.10
2018-04-08T09:33:58.040Z,34.20
2018-04-08T09:36:25.643Z,34.50
2018-04-08T09:39:10.550Z,34.90
2018-04-08T09:41:38.087Z,34.70
2018-04-08T09:44:05.614Z,34.70
2018-04-08T09:46:33.153Z,33.90
2018-04-08T09:49:00.681Z,33.20
2018-04-08T09:51:29.074Z,33.60
2018-04-08T09:53:56.583Z,33.40
2018-04-08T09:56:24.888Z,33.20
2018-04-08T09:58:53.414Z,33.10
2018-04-08T10:01:26.521Z,32.20
2018-04-08T10:03:54.069Z,32.60
2018-04-08T10:06:21.668Z,33.20
2018-04-08T10:08:49.977Z,32.90
2018-04-08T10:11:17.535Z,32.90
2018-04-08T10:13:45.887Z,31.30
2018-04-08T10:16:13.430Z,31.30
2018-04-08T10:18:41.810Z,31.60
2018-04-08T10:21:10.134Z,32.30
2018-04-08T10:23:38.183Z,32.30
2018-04-08T10:26:06.715Z,33.20
2018-04-08T10:28:35.582Z,32.80
2018-04-08T10:31:03.183Z,33.70
2018-04-08T10:33:30.818Z,33.00
2018-04-08T10:35:58.421Z,32.60
2018-04-08T10:38:26.802Z,32.90
2018-04-08T10:40:54.419Z,32.90
2018-04-08T10:43:21.988Z,32.70
2018-04-08T10:45:49.637Z,32.40
2018-04-08T10:48:17.224Z,32.00
2018-04-08T10:50:45.665Z,32.30
2018-04-08T10:53:14.164Z,32.30
2018-04-08T10:55:41.798Z,32.20
2018-04-08T10:58:09.362Z,32.20
2018-04-08T11:00:36.980Z,31.80
2018-04-08T11:03:06.335Z,31.80
2018-04-08T11:05:33.910Z,31.80
2018-04-08T11:08:01.538Z,32.00
2018-04-08T11:10:29.138Z,32.10
2018-04-08T11:12:56.726Z,31.30
2018-04-08T11:15:25.049Z,31.40
2018-04-08T11:17:52.628Z,31.40
2018-04-08T11:20:20.265Z,31.00
2018-04-08T11:22:47.896Z,30.50
2018-04-08T11:25:15.502Z,30.90
2018-04-08T11:27:43.132Z,30.60
2018-04-08T11:30:10.705Z,30.40
2018-04-08T11:32:38.353Z,30.90
2018-04-08T11:35:20.572Z,30.70
2018-04-08T11:37:50.857Z,30.50
2018-04-08T11:40:19.272Z,30.30
2018-04-08T11:42:46.921Z,30.30
2018-04-08T11:45:14.516Z,30.40
2018-04-08T11:47:42.140Z,30.90
2018-04-08T11:50:21.482Z,31.10
2018-04-08T11:52:49.074Z,31.50
2018-04-08T11:55:16.676Z,31.20
2018-04-08T11:57:45.016Z,31.00
2018-04-08T12:00:12.620Z,31.00
2018-04-08T12:02:40.979Z,31.60
2018-04-08T12:05:08.560Z,31.60
2018-04-08T12:07:36.922Z,30.90
2018-04-08T12:10:05.376Z,30.60
2018-04-08T12:12:33.011Z,30.60
2018-04-08T12:15:00.733Z,30.80
2018-04-08T12:17:28.304Z,31.20
2018-04-08T12:19:56.036Z,31.00
2018-04-08T12:22:23.652Z,31.00
2018-04-08T12:24:51.282Z,30.80
2018-04-08T12:27:26.410Z,30.90
2018-04-08T12:29:54.050Z,30.40
2018-04-08T12:32:21.681Z,30.40
2018-04-08T12:35:10.231Z,30.60
2018-04-08T12:37:37.864Z,30.90
2018-04-08T12:40:06.248Z,30.80
2018-04-08T12:42:34.640Z,30.90
2018-04-08T12:45:03.032Z,30.40
2018-04-08T12:47:31.138Z,30.40
2018-04-08T12:49:58.761Z,30.30
2018-04-08T12:52:26.418Z,30.50
2018-04-08T12:54:54.099Z,30.50
2018-04-08T12:57:21.783Z,30.50
2018-04-08T12:59:49.375Z,30.40
2018-04-08T13:02:18.751Z,30.50
2018-04-08T13:07:32.956Z,30.50
2018-04-08T13:10:00.605Z,30.50
2018-04-08T13:12:28.238Z,30.50
2018-04-08T13:14:56.933Z,30.00
2018-04-08T13:17:42.812Z,30.10
2018-04-08T13:20:12.429Z,29.80
2018-04-08T13:22:40.067Z,29.70
2018-04-08T13:28:18.439Z,28.50
2018-04-08T13:30:48.785Z,28.90
2018-04-08T13:33:16.383Z,28.90
2018-04-08T13:35:44.035Z,29.20
2018-04-08T13:38:15.788Z,28.80
2018-04-08T13:40:43.381Z,29.20
2018-04-08T13:43:11.057Z,29.00
2018-04-08T13:45:38.678Z,28.60
2018-04-08T13:51:05.709Z,28.40
2018-04-08T13:56:37.654Z,28.30
2018-04-08T13:59:08.562Z,28.30
2018-04-08T14:01:36.195Z,28.20
2018-04-08T14:04:04.539Z,28.30
2018-04-08T14:06:47.601Z,28.20
2018-04-08T14:09:15.216Z,28.20
2018-04-08T14:11:53.324Z,28.30
2018-04-08T14:14:26.964Z,28.60
2018-04-08T14:17:18.884Z,28.70
2018-04-08T14:19:47.242Z,28.20
2018-04-08T14:22:14.863Z,28.20
2018-04-08T14:24:43.288Z,28.10
2018-04-08T14:27:10.872Z,28.00
2018-04-08T14:29:38.466Z,28.10
2018-04-08T14:32:06.159Z,28.00
2018-04-08T14:34:50.568Z,28.10
2018-04-08T14:37:18.195Z,27.90
2018-04-08T14:39:45.768Z,27.60
2018-04-08T14:42:13.334Z,27.50
2018-04-08T14:44:41.753Z,27.20
2018-04-08T14:47:09.333Z,27.20
2018-04-08T14:49:36.938Z,27.20
2018-04-08T14:52:04.548Z,27.20
2018-04-08T14:54:32.118Z,26.90
2018-04-08T14:56:59.747Z,27.00
2018-04-08T14:59:27.315Z,27.10
2018-04-08T15:01:54.939Z,27.20
2018-04-08T15:04:22.510Z,27.00
2018-04-08T15:06:50.112Z,26.80
2018-04-08T15:09:17.659Z,26.70
2018-04-08T15:11:45.285Z,26.70
2018-04-08T15:14:12.871Z,26.70
2018-04-08T15:16:40.458Z,26.40
2018-04-08T15:19:08.001Z,26.00
2018-04-08T15:21:35.604Z,25.80
2018-04-08T15:24:03.965Z,25.90
2018-04-08T15:26:31.612Z,25.80
2018-04-08T15:28:59.198Z,25.70
2018-04-08T15:31:40.847Z,25.20
2018-04-08T15:34:08.459Z,25.10
2018-04-08T15:36:36.806Z,24.80
2018-04-08T15:39:04.470Z,24.70
2018-04-08T15:41:32.030Z,24.70
2018-04-08T15:43:59.663Z,24.50
2018-04-08T15:46:29.195Z,24.30
2018-04-08T15:48:56.809Z,24.10
2018-04-08T15:51:24.438Z,23.90
2018-04-08T15:53:52.043Z,23.70
2018-04-08T15:56:19.666Z,23.70
2018-04-08T15:58:49.034Z,23.50
2018-04-08T16:01:16.591Z,23.50
2018-04-08T16:03:44.211Z,23.60
2018-04-08T16:06:11.795Z,23.70
2018-04-08T16:08:39.415Z,23.80
2018-04-08T16:11:07.099Z,23.80
2018-04-08T16:13:42.528Z,24.00
2018-04-08T16:16:34.691Z,24.00
2018-04-08T16:19:02.348Z,24.10
2018-04-08T16:21:29.894Z,24.10
2018-04-08T16:23:57.476Z,23.80
2018-04-08T16:26:25.102Z,23.70
2018-04-08T16:28:59.155Z,23.60
2018-04-08T16:31:26.784Z,23.40
2018-04-08T16:33:54.378Z,23.20
2018-04-08T16:36:22.003Z,22.90
2018-04-08T16:38:49.569Z,22.90
2018-04-08T16:41:17.255Z,22.90
2018-04-08T16:43:44.835Z,22.90
2018-04-08T16:46:12.469Z,22.80
2018-04-08T16:48:40.105Z,22.70
2018-04-08T16:51:07.665Z,22.60
2018-04-08T16:53:35.299Z,22.40
2018-04-08T16:56:03.636Z,21.90
2018-04-08T16:58:31.285Z,21.90
2018-04-08T17:00:58.872Z,21.80
2018-04-08T17:03:26.443Z,21.60
2018-04-08T17:05:54.012Z,21.30
2018-04-08T17:08:21.568Z,21.10
2018-04-08T17:10:49.159Z,20.90
2018-04-08T17:13:16.763Z,21.00
2018-04-08T17:15:44.415Z,20.80
2018-04-08T17:21:07.459Z,20.60
2018-04-08T17:23:35.917Z,20.20
2018-04-08T17:26:04.301Z,20.10
2018-04-08T17:28:44.177Z,20.10
2018-04-08T17:31:11.789Z,19.90
2018-04-08T17:33:41.303Z,19.80
2018-04-08T17:36:09.743Z,19.60
2018-04-08T17:38:37.375Z,19.60
2018-04-08T17:41:05.018Z,19.50
2018-04-08T17:43:33.430Z,19.20
2018-04-08T17:46:01.109Z,19.20
2018-04-08T17:48:28.752Z,19.00
2018-04-08T17:50:56.387Z,18.90
2018-04-08T17:56:23.941Z,18.80
2018-04-08T17:58:51.540Z,18.80
2018-04-08T18:01:19.137Z,18.60
2018-04-08T18:03:46.779Z,18.40
2018-04-08T18:06:14.423Z,18.20
2018-04-08T18:08:42.022Z,17.90
2018-04-08T18:11:09.584Z,17.60
2018-04-08T18:13:37.185Z,17.40
2018-04-08T18:16:04.806Z,17.40
2018-04-08T18:18:32.403Z,17.30
2018-04-08T18:21:08.437Z,17.10
2018-04-08T18:23:36.057Z,17.10
2018-04-08T18:26:04.415Z,17.20
2018-04-08T18:28:32.119Z,17.20
2018-04-08T18:30:59.777Z,17.10
2018-04-08T18:33:33.171Z,17.20
2018-04-08T18:36:00.765Z,17.20
2018-04-08T18:38:29.145Z,17.00
2018-04-08T18:41:02.847Z,16.60
2018-04-08T18:43:31.235Z,16.50
2018-04-08T18:46:07.953Z,16.30
2018-04-08T18:48:35.569Z,16.30
2018-04-08T18:51:03.196Z,16.00
2018-04-08T18:53:30.850Z,15.70
2018-04-08T18:55:58.433Z,15.40
2018-04-08T18:58:26.023Z,15.30
2018-04-08T19:00:55.351Z,15.30
2018-04-08T19:03:25.043Z,15.40
2018-04-08T19:05:52.690Z,15.80
2018-04-08T19:08:21.059Z,16.30
2018-04-08T19:10:49.448Z,16.30
2018-04-08T19:13:17.109Z,16.30
2018-04-08T19:15:44.735Z,16.20
2018-04-08T19:18:12.347Z,16.00
2018-04-08T19:20:44.956Z,15.90
2018-04-08T19:23:12.560Z,15.80
2018-04-08T19:25:40.958Z,15.90
2018-04-08T19:28:08.544Z,15.90
2018-04-08T19:30:40.821Z,16.00
2018-04-08T19:33:08.465Z,16.00
2018-04-08T19:35:36.100Z,15.90
2018-04-08T19:38:04.525Z,15.90
2018-04-08T19:40:32.198Z,15.90
2018-04-08T19:42:59.830Z,15.90
2018-04-08T19:45:50.786Z,15.80
2018-04-08T19:48:18.399Z,15.80
2018-04-08T19:50:46.074Z,15.80
2018-04-08T19:56:09.728Z,15.80
2018-04-08T19:58:37.312Z,15.80
2018-04-08T20:01:04.931Z,15.80
2018-04-08T20:03:33.418Z,15.80
2018-04-08T20:06:01.055Z,15.80
2018-04-08T20:17:10.157Z,15.70
2018-04-08T20:19:38.642Z,15.60
2018-04-08T20:22:07.115Z,15.40
2018-04-08T20:24:38.757Z,15.40
2018-04-08T20:27:06.405Z,15.40
2018-04-08T20:29:34.028Z,15.40
2018-04-08T20:32:01.642Z,15.40
2018-04-08T20:34:29.322Z,15.40
2018-04-08T20:36:57.719Z,15.50
2018-04-08T20:39:25.307Z,15.50
2018-04-08T20:41:52.948Z,15.60
2018-04-08T20:44:20.560Z,15.80
2018-04-08T20:46:48.239Z,15.90
2018-04-08T20:49:16.647Z,15.90
2018-04-08T20:51:44.323Z,15.80
2018-04-08T20:54:11.946Z,15.80
2018-04-08T20:56:40.330Z,15.80
2018-04-08T20:59:08.736Z,15.80
2018-04-08T21:01:36.343Z,15.80
2018-04-08T21:04:03.976Z,15.70
2018-04-08T21:06:31.528Z,15.60
2018-04-08T21:08:59.174Z,15.50
2018-04-08T21:11:26.786Z,15.50
2018-04-08T21:13:54.396Z,15.50
2018-04-08T21:16:21.977Z,15.40
2018-04-08T21:18:49.582Z,15.40
2018-04-08T21:21:17.156Z,15.40
2018-04-08T21:23:44.740Z,15.30
2018-04-08T21:26:12.352Z,15.30
2018-04-08T21:28:39.995Z,15.10
2018-04-08T21:31:07.571Z,15.20
2018-04-08T21:33:35.184Z,15.20
2018-04-08T21:36:02.776Z,15.20
2018-04-08T21:38:30.370Z,15.30
2018-04-08T21:40:58.715Z,15.40
2018-04-08T21:43:26.483Z,15.30
2018-04-08T21:45:54.114Z,15.40
2018-04-08T21:48:21.777Z,15.20
2018-04-08T21:50:49.378Z,15.30
2018-04-08T21:53:17.022Z,15.20
2018-04-08T21:55:44.674Z,15.20
2018-04-08T21:58:12.255Z,15.00
2018-04-08T22:00:39.908Z,14.70
2018-04-08T22:03:07.518Z,14.70
2018-04-08T22:05:35.151Z,14.70
2018-04-08T22:08:02.771Z,14.70
2018-04-08T22:10:30.368Z,14.40
2018-04-08T22:12:58.044Z,14.20
2018-04-08T22:15:26.410Z,14.30
2018-04-08T22:17:53.987Z,14.30
2018-04-08T22:20:22.360Z,14.50
2018-04-08T22:22:50.843Z,14.40
2018-04-08T22:25:19.248Z,14.30
2018-04-08T22:27:46.878Z,14.30
2018-04-08T22:30:31.957Z,14.10
2018-04-08T22:33:00.314Z,13.90
2018-04-08T22:35:28.717Z,13.80
2018-04-08T22:37:57.094Z,13.60
2018-04-08T22:40:25.493Z,13.60
2018-04-08T22:42:53.145Z,13.60
2018-04-08T22:45:20.702Z,14.00
2018-04-08T22:47:48.351Z,14.00
2018-04-08T22:50:16.708Z,13.90
2018-04-08T22:52:44.290Z,13.90
2018-04-08T22:55:12.676Z,13.70
2018-04-08T22:57:40.263Z,13.70
2018-04-08T23:00:07.862Z,13.90
2018-04-08T23:02:35.491Z,13.80
2018-04-08T23:05:03.075Z,13.80
2018-04-08T23:07:30.646Z,13.90
2018-04-08T23:09:58.273Z,13.80
2018-04-08T23:12:25.830Z,13.80
2018-04-08T23:14:53.417Z,13.60
2018-04-08T23:17:21.039Z,13.20
2018-04-08T23:19:48.635Z,13.10
2018-04-08T23:22:16.240Z,12.90
2018-04-08T23:24:43.902Z,12.80
2018-04-08T23:27:11.488Z,12.60
2018-04-08T23:29:39.098Z,12.50
2018-04-08T23:32:06.772Z,12.30
2018-04-08T23:34:35.212Z,12.10
2018-04-08T23:37:02.844Z,12.10
2018-04-08T23:39:30.436Z,12.30
2018-04-08T23:41:58.039Z,12.50
2018-04-08T23:44:26.375Z,12.60
2018-04-08T23:46:54.009Z,12.50
2018-04-08T23:49:21.595Z,12.50
2018-04-08T23:51:49.199Z,12.40
2018-04-08T23:54:17.559Z,12.40
2018-04-08T23:56:45.208Z,12.40
2018-04-08T23:59:12.885Z,12.40
